sensor_id;sensor_type;location;lat;lon;timestamp;P1;durP1;ratioP1;P2;durP2;ratioP2
73321;SDS011;61549;37.044;22.128;2023-03-13T00:01:00;3.10;;;1.90;;
73321;SDS011;61549;37.044;22.128;2023-03-13T00:03:27;3.67;;;2.20;;
73321;SDS011;61549;37.044;22.128;2023-03-13T00:05:56;4.22;;;2.10;;
73321;SDS011;61549;37.044;22.128;2023-03-13T00:08:29;4.18;;;2.20;;
73321;SDS011;61549;37.044;22.128;2023-03-13T00:10:55;3.70;;;2.10;;
73321;SDS011;61549;37.044;22.128;2023-03-13T00:13:21;3.72;;;2.08;;
73321;SDS011;61549;37.044;22.128;2023-03-13T00:15:46;4.32;;;2.20;;
73321;SDS011;61549;37.044;22.128;2023-03-13T00:18:12;3.58;;;2.08;;
73321;SDS011;61549;37.044;22.128;2023-03-13T00:20:38;4.68;;;2.13;;
73321;SDS011;61549;37.044;22.128;2023-03-13T00:23:05;4.22;;;2.10;;
73321;SDS011;61549;37.044;22.128;2023-03-13T00:25:31;3.22;;;2.30;;
73321;SDS011;61549;37.044;22.128;2023-03-13T00:27:57;5.38;;;2.20;;
73321;SDS011;61549;37.044;22.128;2023-03-13T00:30:23;5.53;;;2.25;;
73321;SDS011;61549;37.044;22.128;2023-03-13T00:32:49;4.68;;;2.20;;
73321;SDS011;61549;37.044;22.128;2023-03-13T00:35:14;4.55;;;2.47;;
73321;SDS011;61549;37.044;22.128;2023-03-13T00:37:41;6.70;;;2.60;;
73321;SDS011;61549;37.044;22.128;2023-03-13T00:40:07;5.15;;;2.30;;
73321;SDS011;61549;37.044;22.128;2023-03-13T00:42:33;3.63;;;2.42;;
73321;SDS011;61549;37.044;22.128;2023-03-13T00:45:00;4.22;;;2.20;;
73321;SDS011;61549;37.044;22.128;2023-03-13T00:47:26;5.38;;;2.53;;
73321;SDS011;61549;37.044;22.128;2023-03-13T00:49:52;5.55;;;2.25;;
73321;SDS011;61549;37.044;22.128;2023-03-13T00:52:18;4.97;;;2.28;;
73321;SDS011;61549;37.044;22.128;2023-03-13T00:54:43;5.82;;;2.65;;
73321;SDS011;61549;37.044;22.128;2023-03-13T00:57:09;4.07;;;2.35;;
73321;SDS011;61549;37.044;22.128;2023-03-13T00:59:35;4.72;;;2.40;;
73321;SDS011;61549;37.044;22.128;2023-03-13T01:02:01;6.03;;;2.60;;
73321;SDS011;61549;37.044;22.128;2023-03-13T01:04:27;5.28;;;2.30;;
73321;SDS011;61549;37.044;22.128;2023-03-13T01:06:52;5.47;;;2.60;;
73321;SDS011;61549;37.044;22.128;2023-03-13T01:09:18;3.75;;;2.22;;
73321;SDS011;61549;37.044;22.128;2023-03-13T01:11:44;4.20;;;2.60;;
73321;SDS011;61549;37.044;22.128;2023-03-13T01:14:11;4.10;;;2.15;;
73321;SDS011;61549;37.044;22.128;2023-03-13T01:16:39;4.20;;;2.50;;
73321;SDS011;61549;37.044;22.128;2023-03-13T01:19:06;3.70;;;2.20;;
73321;SDS011;61549;37.044;22.128;2023-03-13T01:21:34;2.92;;;2.28;;
73321;SDS011;61549;37.044;22.128;2023-03-13T01:24:00;3.47;;;2.30;;
73321;SDS011;61549;37.044;22.128;2023-03-13T01:26:26;4.63;;;2.28;;
73321;SDS011;61549;37.044;22.128;2023-03-13T01:28:52;3.53;;;2.30;;
73321;SDS011;61549;37.044;22.128;2023-03-13T01:31:20;5.40;;;2.10;;
73321;SDS011;61549;37.044;22.128;2023-03-13T01:33:58;5.00;;;2.50;;
73321;SDS011;61549;37.044;22.128;2023-03-13T01:36:26;6.95;;;2.60;;
73321;SDS011;61549;37.044;22.128;2023-03-13T01:38:54;3.05;;;2.13;;
73321;SDS011;61549;37.044;22.128;2023-03-13T01:41:22;4.78;;;2.40;;
73321;SDS011;61549;37.044;22.128;2023-03-13T01:43:49;4.05;;;1.98;;
73321;SDS011;61549;37.044;22.128;2023-03-13T01:46:16;3.42;;;2.10;;
73321;SDS011;61549;37.044;22.128;2023-03-13T01:54:09;4.82;;;2.95;;
73321;SDS011;61549;37.044;22.128;2023-03-13T01:59:16;3.90;;;2.60;;
73321;SDS011;61549;37.044;22.128;2023-03-13T02:01:48;5.07;;;3.05;;
73321;SDS011;61549;37.044;22.128;2023-03-13T02:04:16;5.20;;;2.30;;
73321;SDS011;61549;37.044;22.128;2023-03-13T02:06:46;4.30;;;2.20;;
73321;SDS011;61549;37.044;22.128;2023-03-13T02:09:17;4.32;;;2.22;;
73321;SDS011;61549;37.044;22.128;2023-03-13T02:11:49;3.90;;;2.20;;
73321;SDS011;61549;37.044;22.128;2023-03-13T02:14:24;5.50;;;2.47;;
73321;SDS011;61549;37.044;22.128;2023-03-13T02:16:53;2.85;;;1.90;;
73321;SDS011;61549;37.044;22.128;2023-03-13T02:21:58;4.40;;;2.08;;
73321;SDS011;61549;37.044;22.128;2023-03-13T02:27:09;2.28;;;1.70;;
73321;SDS011;61549;37.044;22.128;2023-03-13T02:29:36;3.42;;;2.03;;
73321;SDS011;61549;37.044;22.128;2023-03-13T02:32:02;4.22;;;1.80;;
73321;SDS011;61549;37.044;22.128;2023-03-13T02:34:29;5.10;;;1.83;;
73321;SDS011;61549;37.044;22.128;2023-03-13T02:36:58;4.78;;;1.75;;
73321;SDS011;61549;37.044;22.128;2023-03-13T02:39:26;3.67;;;1.88;;
73321;SDS011;61549;37.044;22.128;2023-03-13T02:41:54;3.65;;;1.70;;
73321;SDS011;61549;37.044;22.128;2023-03-13T02:44:22;2.60;;;1.65;;
73321;SDS011;61549;37.044;22.128;2023-03-13T02:46:49;2.90;;;1.65;;
73321;SDS011;61549;37.044;22.128;2023-03-13T02:49:20;2.67;;;1.60;;
73321;SDS011;61549;37.044;22.128;2023-03-13T02:51:55;2.63;;;1.60;;
73321;SDS011;61549;37.044;22.128;2023-03-13T02:54:33;4.00;;;1.80;;
73321;SDS011;61549;37.044;22.128;2023-03-13T02:57:03;2.20;;;1.55;;
73321;SDS011;61549;37.044;22.128;2023-03-13T02:59:29;2.72;;;1.70;;
73321;SDS011;61549;37.044;22.128;2023-03-13T03:01:56;3.83;;;1.73;;
73321;SDS011;61549;37.044;22.128;2023-03-13T03:04:23;4.55;;;1.80;;
73321;SDS011;61549;37.044;22.128;2023-03-13T03:06:50;2.50;;;1.50;;
73321;SDS011;61549;37.044;22.128;2023-03-13T03:09:17;3.33;;;1.80;;
73321;SDS011;61549;37.044;22.128;2023-03-13T03:11:43;3.83;;;2.10;;
73321;SDS011;61549;37.044;22.128;2023-03-13T03:14:09;3.60;;;2.17;;
73321;SDS011;61549;37.044;22.128;2023-03-13T03:16:37;4.43;;;2.30;;
73321;SDS011;61549;37.044;22.128;2023-03-13T03:19:03;3.80;;;1.60;;
73321;SDS011;61549;37.044;22.128;2023-03-13T03:21:30;2.58;;;1.80;;
73321;SDS011;61549;37.044;22.128;2023-03-13T03:23:57;7.15;;;2.22;;
73321;SDS011;61549;37.044;22.128;2023-03-13T03:26:23;2.63;;;1.77;;
73321;SDS011;61549;37.044;22.128;2023-03-13T03:28:49;3.15;;;2.10;;
73321;SDS011;61549;37.044;22.128;2023-03-13T03:31:15;6.10;;;2.17;;
73321;SDS011;61549;37.044;22.128;2023-03-13T03:33:41;2.88;;;1.60;;
73321;SDS011;61549;37.044;22.128;2023-03-13T03:36:09;3.60;;;1.60;;
73321;SDS011;61549;37.044;22.128;2023-03-13T03:38:37;3.67;;;1.70;;
73321;SDS011;61549;37.044;22.128;2023-03-13T03:41:05;3.63;;;1.90;;
73321;SDS011;61549;37.044;22.128;2023-03-13T03:43:32;3.55;;;1.65;;
73321;SDS011;61549;37.044;22.128;2023-03-13T03:45:58;3.10;;;1.50;;
73321;SDS011;61549;37.044;22.128;2023-03-13T03:48:24;3.00;;;1.85;;
73321;SDS011;61549;37.044;22.128;2023-03-13T03:50:50;3.88;;;2.00;;
73321;SDS011;61549;37.044;22.128;2023-03-13T03:53:23;3.47;;;1.70;;
73321;SDS011;61549;37.044;22.128;2023-03-13T03:55:49;2.70;;;1.60;;
73321;SDS011;61549;37.044;22.128;2023-03-13T03:58:15;4.05;;;1.50;;
73321;SDS011;61549;37.044;22.128;2023-03-13T04:00:45;3.85;;;1.60;;
73321;SDS011;61549;37.044;22.128;2023-03-13T04:03:12;4.45;;;1.50;;
73321;SDS011;61549;37.044;22.128;2023-03-13T04:05:38;2.47;;;1.65;;
73321;SDS011;61549;37.044;22.128;2023-03-13T04:08:05;2.20;;;1.40;;
73321;SDS011;61549;37.044;22.128;2023-03-13T04:10:31;3.05;;;1.40;;
73321;SDS011;61549;37.044;22.128;2023-03-13T04:12:57;4.38;;;1.60;;
73321;SDS011;61549;37.044;22.128;2023-03-13T04:15:23;1.85;;;1.48;;
73321;SDS011;61549;37.044;22.128;2023-03-13T04:17:49;2.17;;;1.30;;
73321;SDS011;61549;37.044;22.128;2023-03-13T04:20:15;4.45;;;1.70;;
73321;SDS011;61549;37.044;22.128;2023-03-13T04:22:41;2.22;;;1.50;;
73321;SDS011;61549;37.044;22.128;2023-03-13T04:25:08;2.50;;;1.60;;
73321;SDS011;61549;37.044;22.128;2023-03-13T04:27:34;2.70;;;1.40;;
73321;SDS011;61549;37.044;22.128;2023-03-13T04:30:01;3.80;;;1.63;;
73321;SDS011;61549;37.044;22.128;2023-03-13T04:32:27;4.03;;;1.50;;
73321;SDS011;61549;37.044;22.128;2023-03-13T04:34:59;2.20;;;1.35;;
73321;SDS011;61549;37.044;22.128;2023-03-13T04:37:25;1.65;;;1.38;;
73321;SDS011;61549;37.044;22.128;2023-03-13T04:39:51;2.65;;;1.40;;
73321;SDS011;61549;37.044;22.128;2023-03-13T04:42:16;5.40;;;1.58;;
73321;SDS011;61549;37.044;22.128;2023-03-13T04:44:42;2.15;;;1.40;;
73321;SDS011;61549;37.044;22.128;2023-03-13T04:47:08;4.00;;;1.50;;
73321;SDS011;61549;37.044;22.128;2023-03-13T04:49:34;2.30;;;1.45;;
73321;SDS011;61549;37.044;22.128;2023-03-13T04:52:00;4.13;;;1.70;;
73321;SDS011;61549;37.044;22.128;2023-03-13T04:54:26;3.15;;;1.70;;
73321;SDS011;61549;37.044;22.128;2023-03-13T04:56:52;4.25;;;1.48;;
73321;SDS011;61549;37.044;22.128;2023-03-13T04:59:17;3.15;;;1.40;;
73321;SDS011;61549;37.044;22.128;2023-03-13T05:01:43;2.58;;;1.50;;
73321;SDS011;61549;37.044;22.128;2023-03-13T05:04:09;2.33;;;1.40;;
73321;SDS011;61549;37.044;22.128;2023-03-13T05:06:36;4.47;;;1.60;;
73321;SDS011;61549;37.044;22.128;2023-03-13T05:09:02;2.97;;;1.85;;
73321;SDS011;61549;37.044;22.128;2023-03-13T05:11:28;3.50;;;1.50;;
73321;SDS011;61549;37.044;22.128;2023-03-13T05:13:54;3.20;;;1.70;;
73321;SDS011;61549;37.044;22.128;2023-03-13T05:18:49;2.83;;;2.00;;
73321;SDS011;61549;37.044;22.128;2023-03-13T05:21:15;3.15;;;1.50;;
73321;SDS011;61549;37.044;22.128;2023-03-13T05:23:41;2.78;;;1.40;;
73321;SDS011;61549;37.044;22.128;2023-03-13T05:26:07;1.77;;;1.38;;
73321;SDS011;61549;37.044;22.128;2023-03-13T05:28:33;2.97;;;1.80;;
73321;SDS011;61549;37.044;22.128;2023-03-13T05:33:28;1.67;;;1.50;;
73321;SDS011;61549;37.044;22.128;2023-03-13T05:35:54;2.92;;;1.58;;
73321;SDS011;61549;37.044;22.128;2023-03-13T05:38:19;3.88;;;1.45;;
73321;SDS011;61549;37.044;22.128;2023-03-13T05:40:45;3.22;;;1.77;;
73321;SDS011;61549;37.044;22.128;2023-03-13T05:43:11;5.50;;;1.98;;
73321;SDS011;61549;37.044;22.128;2023-03-13T05:45:37;2.28;;;1.50;;
73321;SDS011;61549;37.044;22.128;2023-03-13T05:48:03;2.35;;;1.67;;
73321;SDS011;61549;37.044;22.128;2023-03-13T05:50:29;2.80;;;1.63;;
73321;SDS011;61549;37.044;22.128;2023-03-13T05:52:56;2.90;;;1.40;;
73321;SDS011;61549;37.044;22.128;2023-03-13T05:55:22;3.40;;;1.60;;
73321;SDS011;61549;37.044;22.128;2023-03-13T05:57:47;1.40;;;1.30;;
73321;SDS011;61549;37.044;22.128;2023-03-13T06:02:43;3.15;;;1.67;;
73321;SDS011;61549;37.044;22.128;2023-03-13T06:05:09;2.22;;;1.40;;
73321;SDS011;61549;37.044;22.128;2023-03-13T06:07:35;3.03;;;1.20;;
73321;SDS011;61549;37.044;22.128;2023-03-13T06:10:02;2.55;;;1.70;;
73321;SDS011;61549;37.044;22.128;2023-03-13T06:12:28;2.58;;;1.75;;
73321;SDS011;61549;37.044;22.128;2023-03-13T06:14:54;7.72;;;3.05;;
73321;SDS011;61549;37.044;22.128;2023-03-13T06:17:20;7.78;;;3.80;;
73321;SDS011;61549;37.044;22.128;2023-03-13T06:19:46;5.65;;;3.03;;
73321;SDS011;61549;37.044;22.128;2023-03-13T06:22:12;5.50;;;2.33;;
73321;SDS011;61549;37.044;22.128;2023-03-13T06:24:38;2.63;;;1.70;;
73321;SDS011;61549;37.044;22.128;2023-03-13T06:27:03;2.38;;;1.40;;
73321;SDS011;61549;37.044;22.128;2023-03-13T06:29:31;3.22;;;1.77;;
73321;SDS011;61549;37.044;22.128;2023-03-13T06:31:57;5.75;;;2.05;;
73321;SDS011;61549;37.044;22.128;2023-03-13T06:34:22;3.83;;;2.20;;
73321;SDS011;61549;37.044;22.128;2023-03-13T06:36:48;4.80;;;2.08;;
73321;SDS011;61549;37.044;22.128;2023-03-13T06:39:14;5.55;;;2.80;;
73321;SDS011;61549;37.044;22.128;2023-03-13T06:41:40;3.08;;;1.90;;
73321;SDS011;61549;37.044;22.128;2023-03-13T06:44:06;3.20;;;1.58;;
73321;SDS011;61549;37.044;22.128;2023-03-13T06:46:32;2.33;;;1.40;;
73321;SDS011;61549;37.044;22.128;2023-03-13T06:48:58;3.38;;;1.70;;
73321;SDS011;61549;37.044;22.128;2023-03-13T06:51:24;3.63;;;1.50;;
73321;SDS011;61549;37.044;22.128;2023-03-13T06:53:50;3.53;;;1.50;;
73321;SDS011;61549;37.044;22.128;2023-03-13T06:56:17;2.65;;;1.63;;
73321;SDS011;61549;37.044;22.128;2023-03-13T06:58:46;2.97;;;2.33;;
73321;SDS011;61549;37.044;22.128;2023-03-13T07:01:13;4.13;;;2.50;;
73321;SDS011;61549;37.044;22.128;2023-03-13T07:03:41;3.60;;;2.00;;
73321;SDS011;61549;37.044;22.128;2023-03-13T07:06:07;3.58;;;1.90;;
73321;SDS011;61549;37.044;22.128;2023-03-13T07:08:35;3.13;;;1.60;;
73321;SDS011;61549;37.044;22.128;2023-03-13T07:11:07;2.85;;;1.30;;
73321;SDS011;61549;37.044;22.128;2023-03-13T07:13:34;4.97;;;2.00;;
73321;SDS011;61549;37.044;22.128;2023-03-13T07:16:03;4.65;;;2.75;;
73321;SDS011;61549;37.044;22.128;2023-03-13T07:18:30;2.58;;;1.80;;
73321;SDS011;61549;37.044;22.128;2023-03-13T07:20:58;4.88;;;1.73;;
73321;SDS011;61549;37.044;22.128;2023-03-13T07:23:25;4.07;;;2.10;;
73321;SDS011;61549;37.044;22.128;2023-03-13T07:25:57;3.75;;;2.20;;
73321;SDS011;61549;37.044;22.128;2023-03-13T07:28:25;4.60;;;2.90;;
73321;SDS011;61549;37.044;22.128;2023-03-13T07:30:51;5.10;;;2.63;;
73321;SDS011;61549;37.044;22.128;2023-03-13T07:33:18;4.72;;;1.90;;
73321;SDS011;61549;37.044;22.128;2023-03-13T07:35:50;3.08;;;1.90;;
73321;SDS011;61549;37.044;22.128;2023-03-13T07:38:17;3.25;;;1.70;;
73321;SDS011;61549;37.044;22.128;2023-03-13T07:40:51;3.47;;;1.92;;
73321;SDS011;61549;37.044;22.128;2023-03-13T07:43:20;4.78;;;2.15;;
73321;SDS011;61549;37.044;22.128;2023-03-13T07:45:50;3.03;;;1.90;;
73321;SDS011;61549;37.044;22.128;2023-03-13T07:48:23;9.10;;;2.40;;
73321;SDS011;61549;37.044;22.128;2023-03-13T07:50:50;2.13;;;1.50;;
73321;SDS011;61549;37.044;22.128;2023-03-13T07:53:18;2.33;;;1.35;;
73321;SDS011;61549;37.044;22.128;2023-03-13T07:55:52;3.97;;;1.40;;
73321;SDS011;61549;37.044;22.128;2023-03-13T07:58:19;2.20;;;1.40;;
73321;SDS011;61549;37.044;22.128;2023-03-13T08:00:44;4.07;;;2.10;;
73321;SDS011;61549;37.044;22.128;2023-03-13T08:03:10;6.03;;;3.30;;
73321;SDS011;61549;37.044;22.128;2023-03-13T08:05:36;3.90;;;1.90;;
73321;SDS011;61549;37.044;22.128;2023-03-13T08:08:02;2.17;;;1.60;;
73321;SDS011;61549;37.044;22.128;2023-03-13T08:10:29;4.80;;;2.40;;
73321;SDS011;61549;37.044;22.128;2023-03-13T08:12:55;2.35;;;1.63;;
73321;SDS011;61549;37.044;22.128;2023-03-13T08:15:21;2.58;;;1.67;;
73321;SDS011;61549;37.044;22.128;2023-03-13T08:17:53;3.03;;;1.60;;
73321;SDS011;61549;37.044;22.128;2023-03-13T08:20:20;2.28;;;1.30;;
73321;SDS011;61549;37.044;22.128;2023-03-13T08:22:47;3.17;;;1.48;;
73321;SDS011;61549;37.044;22.128;2023-03-13T08:25:14;1.92;;;1.20;;
73321;SDS011;61549;37.044;22.128;2023-03-13T08:27:41;2.53;;;1.20;;
73321;SDS011;61549;37.044;22.128;2023-03-13T08:30:07;2.38;;;1.70;;
73321;SDS011;61549;37.044;22.128;2023-03-13T08:32:34;2.40;;;1.55;;
73321;SDS011;61549;37.044;22.128;2023-03-13T08:35:01;2.03;;;1.45;;
73321;SDS011;61549;37.044;22.128;2023-03-13T08:37:27;2.65;;;1.70;;
73321;SDS011;61549;37.044;22.128;2023-03-13T08:39:53;2.92;;;1.80;;
73321;SDS011;61549;37.044;22.128;2023-03-13T08:42:21;3.65;;;1.95;;
73321;SDS011;61549;37.044;22.128;2023-03-13T08:44:47;4.55;;;1.77;;
73321;SDS011;61549;37.044;22.128;2023-03-13T08:47:13;2.72;;;1.73;;
73321;SDS011;61549;37.044;22.128;2023-03-13T08:49:39;2.13;;;1.60;;
73321;SDS011;61549;37.044;22.128;2023-03-13T08:52:05;1.98;;;1.38;;
73321;SDS011;61549;37.044;22.128;2023-03-13T08:54:32;3.03;;;1.30;;
73321;SDS011;61549;37.044;22.128;2023-03-13T08:56:58;1.50;;;1.27;;
73321;SDS011;61549;37.044;22.128;2023-03-13T08:59:24;2.20;;;1.35;;
73321;SDS011;61549;37.044;22.128;2023-03-13T09:01:50;2.72;;;1.80;;
73321;SDS011;61549;37.044;22.128;2023-03-13T09:04:16;2.38;;;1.55;;
73321;SDS011;61549;37.044;22.128;2023-03-13T09:06:43;2.30;;;1.40;;
73321;SDS011;61549;37.044;22.128;2023-03-13T09:09:09;2.80;;;1.75;;
73321;SDS011;61549;37.044;22.128;2023-03-13T09:11:36;1.98;;;1.52;;
73321;SDS011;61549;37.044;22.128;2023-03-13T09:14:03;2.78;;;1.20;;
73321;SDS011;61549;37.044;22.128;2023-03-13T09:16:30;1.48;;;1.20;;
73321;SDS011;61549;37.044;22.128;2023-03-13T09:18:57;2.45;;;1.40;;
73321;SDS011;61549;37.044;22.128;2023-03-13T09:21:28;2.22;;;1.30;;
73321;SDS011;61549;37.044;22.128;2023-03-13T09:23:55;1.33;;;1.00;;
73321;SDS011;61549;37.044;22.128;2023-03-13T09:26:21;1.40;;;1.17;;
73321;SDS011;61549;37.044;22.128;2023-03-13T09:28:48;2.33;;;1.23;;
73321;SDS011;61549;37.044;22.128;2023-03-13T09:31:15;2.10;;;1.20;;
73321;SDS011;61549;37.044;22.128;2023-03-13T09:33:43;2.70;;;1.50;;
73321;SDS011;61549;37.044;22.128;2023-03-13T09:36:11;2.45;;;1.20;;
73321;SDS011;61549;37.044;22.128;2023-03-13T09:38:39;2.13;;;1.10;;
73321;SDS011;61549;37.044;22.128;2023-03-13T09:46:40;1.60;;;1.20;;
73321;SDS011;61549;37.044;22.128;2023-03-13T09:52:13;3.95;;;1.40;;
73321;SDS011;61549;37.044;22.128;2023-03-13T09:54:41;1.90;;;1.30;;
73321;SDS011;61549;37.044;22.128;2023-03-13T09:57:32;1.63;;;1.35;;
73321;SDS011;61549;37.044;22.128;2023-03-13T10:00:21;4.57;;;1.83;;
73321;SDS011;61549;37.044;22.128;2023-03-13T10:02:55;12.38;;;3.10;;
73321;SDS011;61549;37.044;22.128;2023-03-13T10:05:28;2.63;;;1.25;;
73321;SDS011;61549;37.044;22.128;2023-03-13T10:08:14;2.40;;;1.20;;
73321;SDS011;61549;37.044;22.128;2023-03-13T10:10:52;1.70;;;1.10;;
73321;SDS011;61549;37.044;22.128;2023-03-13T10:13:43;3.30;;;1.55;;
73321;SDS011;61549;37.044;22.128;2023-03-13T10:16:37;2.13;;;1.30;;
73321;SDS011;61549;37.044;22.128;2023-03-13T10:19:15;2.78;;;1.38;;
73321;SDS011;61549;37.044;22.128;2023-03-13T10:21:44;2.30;;;1.20;;
73321;SDS011;61549;37.044;22.128;2023-03-13T10:27:12;3.30;;;1.40;;
73321;SDS011;61549;37.044;22.128;2023-03-13T10:29:39;2.20;;;1.35;;
73321;SDS011;61549;37.044;22.128;2023-03-13T10:32:06;6.65;;;2.30;;
73321;SDS011;61549;37.044;22.128;2023-03-13T10:37:11;3.33;;;1.73;;
73321;SDS011;61549;37.044;22.128;2023-03-13T10:39:39;2.95;;;1.38;;
73321;SDS011;61549;37.044;22.128;2023-03-13T10:42:09;1.70;;;1.20;;
73321;SDS011;61549;37.044;22.128;2023-03-13T10:44:44;5.63;;;2.13;;
73321;SDS011;61549;37.044;22.128;2023-03-13T10:47:14;2.92;;;1.30;;
73321;SDS011;61549;37.044;22.128;2023-03-13T10:49:50;2.75;;;1.40;;
73321;SDS011;61549;37.044;22.128;2023-03-13T10:52:31;5.25;;;1.75;;
73321;SDS011;61549;37.044;22.128;2023-03-13T10:55:01;3.45;;;1.90;;
73321;SDS011;61549;37.044;22.128;2023-03-13T10:57:35;4.00;;;1.50;;
73321;SDS011;61549;37.044;22.128;2023-03-13T11:02:50;1.75;;;1.10;;
73321;SDS011;61549;37.044;22.128;2023-03-13T11:07:54;2.65;;;1.27;;
73321;SDS011;61549;37.044;22.128;2023-03-13T11:10:21;2.08;;;1.30;;
73321;SDS011;61549;37.044;22.128;2023-03-13T11:12:56;2.58;;;1.20;;
73321;SDS011;61549;37.044;22.128;2023-03-13T11:15:45;1.92;;;1.00;;
73321;SDS011;61549;37.044;22.128;2023-03-13T11:18:27;1.50;;;0.98;;
73321;SDS011;61549;37.044;22.128;2023-03-13T11:21:00;2.97;;;1.30;;
73321;SDS011;61549;37.044;22.128;2023-03-13T11:23:38;4.57;;;1.10;;
73321;SDS011;61549;37.044;22.128;2023-03-13T11:32:01;2.95;;;1.23;;
73321;SDS011;61549;37.044;22.128;2023-03-13T11:34:42;3.17;;;1.13;;
73321;SDS011;61549;37.044;22.128;2023-03-13T11:37:22;1.70;;;1.20;;
73321;SDS011;61549;37.044;22.128;2023-03-13T12:04:01;1.05;;;0.95;;
73321;SDS011;61549;37.044;22.128;2023-03-13T12:06:49;1.42;;;0.80;;
73321;SDS011;61549;37.044;22.128;2023-03-13T12:09:30;1.35;;;0.90;;
73321;SDS011;61549;37.044;22.128;2023-03-13T12:15:16;1.98;;;1.00;;
73321;SDS011;61549;37.044;22.128;2023-03-13T12:18:35;1.77;;;0.90;;
73321;SDS011;61549;37.044;22.128;2023-03-13T12:24:03;2.22;;;1.00;;
73321;SDS011;61549;37.044;22.128;2023-03-13T12:26:45;1.95;;;0.90;;
73321;SDS011;61549;37.044;22.128;2023-03-13T12:32:07;3.03;;;1.10;;
73321;SDS011;61549;37.044;22.128;2023-03-13T12:37:20;1.83;;;1.00;;
73321;SDS011;61549;37.044;22.128;2023-03-13T12:39:57;1.17;;;0.90;;
73321;SDS011;61549;37.044;22.128;2023-03-13T12:42:54;2.60;;;0.90;;
73321;SDS011;61549;37.044;22.128;2023-03-13T12:45:35;2.08;;;1.10;;
73321;SDS011;61549;37.044;22.128;2023-03-13T13:01:43;3.45;;;1.10;;
73321;SDS011;61549;37.044;22.128;2023-03-13T13:04:13;2.42;;;1.20;;
73321;SDS011;61549;37.044;22.128;2023-03-13T13:25:46;2.05;;;0.80;;
73321;SDS011;61549;37.044;22.128;2023-03-13T13:27:50;1.20;;;1.10;;
73321;SDS011;61549;37.044;22.128;2023-03-13T13:32:43;3.20;;;1.00;;
73321;SDS011;61549;37.044;22.128;2023-03-13T13:37:36;1.50;;;0.90;;
73321;SDS011;61549;37.044;22.128;2023-03-13T13:40:20;1.63;;;0.90;;
73321;SDS011;61549;37.044;22.128;2023-03-13T13:48:27;4.38;;;2.72;;
73321;SDS011;61549;37.044;22.128;2023-03-13T14:01:29;1.42;;;1.00;;
73321;SDS011;61549;37.044;22.128;2023-03-13T14:06:44;1.42;;;1.25;;
73321;SDS011;61549;37.044;22.128;2023-03-13T14:09:39;2.80;;;1.23;;
73321;SDS011;61549;37.044;22.128;2023-03-13T14:12:25;2.05;;;1.60;;
73321;SDS011;61549;37.044;22.128;2023-03-13T14:15:06;1.40;;;1.20;;
73321;SDS011;61549;37.044;22.128;2023-03-13T14:20:31;4.85;;;2.25;;
73321;SDS011;61549;37.044;22.128;2023-03-13T14:22:59;4.05;;;2.00;;
73321;SDS011;61549;37.044;22.128;2023-03-13T14:28:17;1.52;;;1.20;;
73321;SDS011;61549;37.044;22.128;2023-03-13T14:30:53;2.28;;;1.23;;
73321;SDS011;61549;37.044;22.128;2023-03-13T14:33:20;2.95;;;1.30;;
73321;SDS011;61549;37.044;22.128;2023-03-13T14:35:47;1.88;;;1.02;;
73321;SDS011;61549;37.044;22.128;2023-03-13T14:38:14;1.98;;;1.20;;
73321;SDS011;61549;37.044;22.128;2023-03-13T14:40:51;1.77;;;1.10;;
73321;SDS011;61549;37.044;22.128;2023-03-13T14:43:22;2.75;;;1.50;;
73321;SDS011;61549;37.044;22.128;2023-03-13T14:45:52;3.50;;;1.38;;
73321;SDS011;61549;37.044;22.128;2023-03-13T14:50:58;5.75;;;2.92;;
73321;SDS011;61549;37.044;22.128;2023-03-13T14:53:27;4.07;;;2.67;;
73321;SDS011;61549;37.044;22.128;2023-03-13T14:56:13;3.47;;;1.80;;
73321;SDS011;61549;37.044;22.128;2023-03-13T14:58:43;3.13;;;1.80;;
73321;SDS011;61549;37.044;22.128;2023-03-13T15:01:23;1.90;;;1.52;;
73321;SDS011;61549;37.044;22.128;2023-03-13T15:03:51;3.60;;;2.00;;
73321;SDS011;61549;37.044;22.128;2023-03-13T15:06:18;2.08;;;1.58;;
73321;SDS011;61549;37.044;22.128;2023-03-13T15:08:46;2.92;;;1.70;;
73321;SDS011;61549;37.044;22.128;2023-03-13T15:11:18;3.83;;;1.80;;
73321;SDS011;61549;37.044;22.128;2023-03-13T15:13:57;2.03;;;1.58;;
73321;SDS011;61549;37.044;22.128;2023-03-13T15:16:24;3.70;;;1.60;;
73321;SDS011;61549;37.044;22.128;2023-03-13T15:18:52;2.05;;;1.60;;
73321;SDS011;61549;37.044;22.128;2023-03-13T15:21:28;3.10;;;1.67;;
73321;SDS011;61549;37.044;22.128;2023-03-13T15:24:00;5.57;;;2.92;;
73321;SDS011;61549;37.044;22.128;2023-03-13T15:26:34;2.47;;;1.80;;
73321;SDS011;61549;37.044;22.128;2023-03-13T15:29:00;2.83;;;1.70;;
73321;SDS011;61549;37.044;22.128;2023-03-13T15:31:27;2.88;;;1.70;;
73321;SDS011;61549;37.044;22.128;2023-03-13T15:33:57;2.30;;;1.90;;
73321;SDS011;61549;37.044;22.128;2023-03-13T15:36:25;3.92;;;2.50;;
73321;SDS011;61549;37.044;22.128;2023-03-13T15:38:51;3.00;;;2.05;;
73321;SDS011;61549;37.044;22.128;2023-03-13T15:41:18;3.97;;;2.10;;
73321;SDS011;61549;37.044;22.128;2023-03-13T15:43:44;3.20;;;2.58;;
73321;SDS011;61549;37.044;22.128;2023-03-13T15:46:14;4.05;;;2.20;;
73321;SDS011;61549;37.044;22.128;2023-03-13T15:48:40;5.07;;;2.80;;
73321;SDS011;61549;37.044;22.128;2023-03-13T15:51:11;3.85;;;2.50;;
73321;SDS011;61549;37.044;22.128;2023-03-13T15:53:39;3.45;;;2.50;;
73321;SDS011;61549;37.044;22.128;2023-03-13T15:56:10;3.83;;;2.50;;
73321;SDS011;61549;37.044;22.128;2023-03-13T15:58:39;3.35;;;2.53;;
73321;SDS011;61549;37.044;22.128;2023-03-13T16:01:05;4.88;;;2.72;;
73321;SDS011;61549;37.044;22.128;2023-03-13T16:03:33;4.72;;;3.03;;
73321;SDS011;61549;37.044;22.128;2023-03-13T16:05:59;3.58;;;2.88;;
73321;SDS011;61549;37.044;22.128;2023-03-13T16:08:27;5.75;;;3.13;;
73321;SDS011;61549;37.044;22.128;2023-03-13T16:10:54;4.22;;;3.08;;
73321;SDS011;61549;37.044;22.128;2023-03-13T16:13:20;6.28;;;2.63;;
73321;SDS011;61549;37.044;22.128;2023-03-13T16:15:46;4.38;;;2.60;;
73321;SDS011;61549;37.044;22.128;2023-03-13T16:18:19;4.45;;;3.30;;
73321;SDS011;61549;37.044;22.128;2023-03-13T16:20:47;5.72;;;3.60;;
73321;SDS011;61549;37.044;22.128;2023-03-13T16:23:13;7.32;;;4.47;;
73321;SDS011;61549;37.044;22.128;2023-03-13T16:25:40;5.70;;;3.90;;
73321;SDS011;61549;37.044;22.128;2023-03-13T16:28:10;5.28;;;3.42;;
73321;SDS011;61549;37.044;22.128;2023-03-13T16:30:36;5.05;;;3.22;;
73321;SDS011;61549;37.044;22.128;2023-03-13T16:33:05;5.50;;;4.00;;
73321;SDS011;61549;37.044;22.128;2023-03-13T16:35:32;5.90;;;3.80;;
73321;SDS011;61549;37.044;22.128;2023-03-13T16:37:58;6.78;;;3.92;;
73321;SDS011;61549;37.044;22.128;2023-03-13T16:40:31;5.05;;;3.55;;
73321;SDS011;61549;37.044;22.128;2023-03-13T16:42:58;5.72;;;3.33;;
73321;SDS011;61549;37.044;22.128;2023-03-13T16:45:24;6.57;;;3.78;;
73321;SDS011;61549;37.044;22.128;2023-03-13T16:47:50;6.60;;;5.18;;
73321;SDS011;61549;37.044;22.128;2023-03-13T16:50:27;6.57;;;5.10;;
73321;SDS011;61549;37.044;22.128;2023-03-13T16:52:57;9.50;;;7.03;;
73321;SDS011;61549;37.044;22.128;2023-03-13T16:55:24;15.48;;;12.85;;
73321;SDS011;61549;37.044;22.128;2023-03-13T16:57:58;19.13;;;12.40;;
73321;SDS011;61549;37.044;22.128;2023-03-13T17:00:25;14.93;;;11.82;;
73321;SDS011;61549;37.044;22.128;2023-03-13T17:02:54;24.30;;;20.70;;
73321;SDS011;61549;37.044;22.128;2023-03-13T17:05:22;16.67;;;13.00;;
73321;SDS011;61549;37.044;22.128;2023-03-13T17:07:49;28.70;;;19.00;;
73321;SDS011;61549;37.044;22.128;2023-03-13T17:10:23;25.92;;;18.10;;